sensor_id;sensor_type;location;lat;lon;timestamp;P1;durP1;ratioP1;P2;durP2;ratioP2
14116;SDS011;7137;51.436;6.544;2024-01-25T00:01:28;30.83;;;6.40;;
14116;SDS011;7137;51.436;6.544;2024-01-25T00:04:30;29.40;;;6.43;;
14116;SDS011;7137;51.436;6.544;2024-01-25T00:07:31;30.60;;;6.70;;
14116;SDS011;7137;51.436;6.544;2024-01-25T00:10:33;32.27;;;6.63;;
14116;SDS011;7137;51.436;6.544;2024-01-25T00:13:35;30.60;;;6.13;;
14116;SDS011;7137;51.436;6.544;2024-01-25T00:16:41;26.90;;;6.90;;
14116;SDS011;7137;51.436;6.544;2024-01-25T00:19:43;34.23;;;6.87;;
14116;SDS011;7137;51.436;6.544;2024-01-25T00:22:44;30.83;;;6.63;;
14116;SDS011;7137;51.436;6.544;2024-01-25T00:25:46;35.07;;;7.13;;
14116;SDS011;7137;51.436;6.544;2024-01-25T00:28:47;30.83;;;7.20;;
14116;SDS011;7137;51.436;6.544;2024-01-25T00:31:50;28.93;;;6.27;;
14116;SDS011;7137;51.436;6.544;2024-01-25T00:34:52;28.60;;;7.00;;
14116;SDS011;7137;51.436;6.544;2024-01-25T00:37:54;26.83;;;5.83;;
14116;SDS011;7137;51.436;6.544;2024-01-25T00:40:56;31.80;;;6.60;;
14116;SDS011;7137;51.436;6.544;2024-01-25T00:43:58;32.83;;;5.93;;
14116;SDS011;7137;51.436;6.544;2024-01-25T00:47:01;32.73;;;6.97;;
14116;SDS011;7137;51.436;6.544;2024-01-25T00:50:03;31.20;;;6.20;;
14116;SDS011;7137;51.436;6.544;2024-01-25T00:53:15;31.20;;;6.37;;
14116;SDS011;7137;51.436;6.544;2024-01-25T00:56:17;30.80;;;6.53;;
14116;SDS011;7137;51.436;6.544;2024-01-25T00:59:20;30.30;;;6.37;;
14116;SDS011;7137;51.436;6.544;2024-01-25T01:02:23;28.43;;;6.83;;
14116;SDS011;7137;51.436;6.544;2024-01-25T01:05:30;31.80;;;5.83;;
14116;SDS011;7137;51.436;6.544;2024-01-25T01:08:32;24.87;;;5.60;;
14116;SDS011;7137;51.436;6.544;2024-01-25T01:11:34;31.43;;;6.70;;
14116;SDS011;7137;51.436;6.544;2024-01-25T01:14:37;28.77;;;6.90;;
14116;SDS011;7137;51.436;6.544;2024-01-25T01:17:40;29.13;;;6.60;;
14116;SDS011;7137;51.436;6.544;2024-01-25T01:20:41;29.00;;;5.93;;
14116;SDS011;7137;51.436;6.544;2024-01-25T01:23:43;26.20;;;6.07;;
14116;SDS011;7137;51.436;6.544;2024-01-25T01:26:44;25.13;;;6.07;;
14116;SDS011;7137;51.436;6.544;2024-01-25T01:29:46;32.07;;;6.30;;
14116;SDS011;7137;51.436;6.544;2024-01-25T01:32:50;30.00;;;5.97;;
14116;SDS011;7137;51.436;6.544;2024-01-25T01:35:52;25.80;;;6.30;;
14116;SDS011;7137;51.436;6.544;2024-01-25T01:38:57;29.70;;;5.80;;
14116;SDS011;7137;51.436;6.544;2024-01-25T01:41:58;24.13;;;5.40;;
14116;SDS011;7137;51.436;6.544;2024-01-25T01:45:00;30.03;;;6.10;;
14116;SDS011;7137;51.436;6.544;2024-01-25T01:48:06;32.10;;;6.53;;
14116;SDS011;7137;51.436;6.544;2024-01-25T01:51:12;23.83;;;5.50;;
14116;SDS011;7137;51.436;6.544;2024-01-25T01:54:13;34.33;;;5.83;;
14116;SDS011;7137;51.436;6.544;2024-01-25T01:57:15;30.70;;;5.97;;
14116;SDS011;7137;51.436;6.544;2024-01-25T02:00:17;27.50;;;6.37;;
14116;SDS011;7137;51.436;6.544;2024-01-25T02:03:24;33.63;;;5.37;;
14116;SDS011;7137;51.436;6.544;2024-01-25T02:06:26;33.33;;;6.00;;
14116;SDS011;7137;51.436;6.544;2024-01-25T02:09:28;29.53;;;6.23;;
14116;SDS011;7137;51.436;6.544;2024-01-25T02:12:29;32.57;;;6.43;;
14116;SDS011;7137;51.436;6.544;2024-01-25T02:15:31;28.20;;;6.00;;
14116;SDS011;7137;51.436;6.544;2024-01-25T02:18:34;30.03;;;5.70;;
14116;SDS011;7137;51.436;6.544;2024-01-25T02:21:42;28.17;;;6.00;;
14116;SDS011;7137;51.436;6.544;2024-01-25T02:24:46;30.00;;;5.77;;
14116;SDS011;7137;51.436;6.544;2024-01-25T02:27:49;32.00;;;6.47;;
14116;SDS011;7137;51.436;6.544;2024-01-25T02:30:51;32.20;;;6.30;;
14116;SDS011;7137;51.436;6.544;2024-01-25T02:33:52;26.47;;;5.63;;
14116;SDS011;7137;51.436;6.544;2024-01-25T02:36:54;30.47;;;6.10;;
14116;SDS011;7137;51.436;6.544;2024-01-25T02:39:57;26.93;;;5.60;;
14116;SDS011;7137;51.436;6.544;2024-01-25T02:42:58;29.23;;;5.57;;
14116;SDS011;7137;51.436;6.544;2024-01-25T02:45:59;28.77;;;5.97;;
14116;SDS011;7137;51.436;6.544;2024-01-25T02:49:01;28.10;;;6.73;;
14116;SDS011;7137;51.436;6.544;2024-01-25T02:52:03;25.73;;;5.60;;
14116;SDS011;7137;51.436;6.544;2024-01-25T02:55:06;29.50;;;6.10;;
14116;SDS011;7137;51.436;6.544;2024-01-25T02:58:08;28.37;;;5.73;;
14116;SDS011;7137;51.436;6.544;2024-01-25T03:01:10;35.87;;;6.80;;
14116;SDS011;7137;51.436;6.544;2024-01-25T03:04:11;28.13;;;5.97;;
14116;SDS011;7137;51.436;6.544;2024-01-25T03:07:13;28.97;;;5.47;;
14116;SDS011;7137;51.436;6.544;2024-01-25T03:10:17;31.57;;;6.53;;
14116;SDS011;7137;51.436;6.544;2024-01-25T03:13:18;25.83;;;5.23;;
14116;SDS011;7137;51.436;6.544;2024-01-25T03:16:20;35.40;;;6.03;;
14116;SDS011;7137;51.436;6.544;2024-01-25T03:19:22;27.23;;;5.77;;
14116;SDS011;7137;51.436;6.544;2024-01-25T03:22:25;35.13;;;6.40;;
14116;SDS011;7137;51.436;6.544;2024-01-25T03:25:28;27.73;;;5.70;;
14116;SDS011;7137;51.436;6.544;2024-01-25T03:28:31;34.13;;;6.13;;
14116;SDS011;7137;51.436;6.544;2024-01-25T03:31:32;29.77;;;5.73;;
14116;SDS011;7137;51.436;6.544;2024-01-25T03:34:35;25.93;;;5.37;;
14116;SDS011;7137;51.436;6.544;2024-01-25T03:37:37;26.07;;;5.63;;
14116;SDS011;7137;51.436;6.544;2024-01-25T03:40:40;29.40;;;5.87;;
14116;SDS011;7137;51.436;6.544;2024-01-25T03:43:41;23.13;;;4.80;;
14116;SDS011;7137;51.436;6.544;2024-01-25T03:46:44;27.03;;;5.63;;
14116;SDS011;7137;51.436;6.544;2024-01-25T03:49:46;27.43;;;5.83;;
14116;SDS011;7137;51.436;6.544;2024-01-25T03:52:47;29.50;;;6.03;;
14116;SDS011;7137;51.436;6.544;2024-01-25T03:55:50;30.43;;;5.93;;
14116;SDS011;7137;51.436;6.544;2024-01-25T03:58:52;37.97;;;6.10;;
14116;SDS011;7137;51.436;6.544;2024-01-25T04:01:56;32.70;;;5.67;;
14116;SDS011;7137;51.436;6.544;2024-01-25T04:04:57;30.70;;;6.03;;
14116;SDS011;7137;51.436;6.544;2024-01-25T04:07:59;33.63;;;6.60;;
14116;SDS011;7137;51.436;6.544;2024-01-25T04:11:01;34.03;;;6.63;;
14116;SDS011;7137;51.436;6.544;2024-01-25T04:14:03;34.07;;;6.43;;
14116;SDS011;7137;51.436;6.544;2024-01-25T04:17:06;28.23;;;5.97;;
14116;SDS011;7137;51.436;6.544;2024-01-25T04:20:07;29.70;;;5.00;;
14116;SDS011;7137;51.436;6.544;2024-01-25T04:23:09;26.90;;;5.40;;
14116;SDS011;7137;51.436;6.544;2024-01-25T04:26:12;26.67;;;5.43;;
14116;SDS011;7137;51.436;6.544;2024-01-25T04:29:14;30.83;;;5.97;;
14116;SDS011;7137;51.436;6.544;2024-01-25T04:32:15;25.50;;;5.57;;
14116;SDS011;7137;51.436;6.544;2024-01-25T04:35:17;29.40;;;5.80;;
14116;SDS011;7137;51.436;6.544;2024-01-25T04:38:18;29.30;;;5.90;;
14116;SDS011;7137;51.436;6.544;2024-01-25T04:41:21;24.70;;;5.93;;
14116;SDS011;7137;51.436;6.544;2024-01-25T04:44:23;22.60;;;5.23;;
14116;SDS011;7137;51.436;6.544;2024-01-25T04:47:24;21.60;;;5.23;;
14116;SDS011;7137;51.436;6.544;2024-01-25T04:50:26;26.23;;;5.27;;
14116;SDS011;7137;51.436;6.544;2024-01-25T04:53:28;22.57;;;5.50;;
14116;SDS011;7137;51.436;6.544;2024-01-25T04:56:31;26.53;;;5.30;;
14116;SDS011;7137;51.436;6.544;2024-01-25T04:59:33;26.40;;;5.17;;
14116;SDS011;7137;51.436;6.544;2024-01-25T05:02:35;25.90;;;5.27;;
14116;SDS011;7137;51.436;6.544;2024-01-25T05:05:38;23.40;;;5.70;;
14116;SDS011;7137;51.436;6.544;2024-01-25T05:08:41;21.33;;;5.07;;
14116;SDS011;7137;51.436;6.544;2024-01-25T05:11:44;22.40;;;4.77;;
14116;SDS011;7137;51.436;6.544;2024-01-25T05:14:46;20.00;;;5.00;;
14116;SDS011;7137;51.436;6.544;2024-01-25T05:17:48;21.70;;;5.63;;
14116;SDS011;7137;51.436;6.544;2024-01-25T05:20:50;21.57;;;4.97;;
14116;SDS011;7137;51.436;6.544;2024-01-25T05:23:52;19.07;;;5.13;;
14116;SDS011;7137;51.436;6.544;2024-01-25T05:26:56;23.40;;;6.47;;
14116;SDS011;7137;51.436;6.544;2024-01-25T05:29:58;26.00;;;6.13;;
14116;SDS011;7137;51.436;6.544;2024-01-25T05:32:59;25.10;;;5.87;;
14116;SDS011;7137;51.436;6.544;2024-01-25T05:36:02;24.03;;;6.10;;
14116;SDS011;7137;51.436;6.544;2024-01-25T05:39:05;22.70;;;5.30;;
14116;SDS011;7137;51.436;6.544;2024-01-25T05:42:09;24.87;;;5.73;;
14116;SDS011;7137;51.436;6.544;2024-01-25T05:45:11;21.27;;;5.13;;
14116;SDS011;7137;51.436;6.544;2024-01-25T05:48:12;23.53;;;5.23;;
14116;SDS011;7137;51.436;6.544;2024-01-25T05:51:14;26.57;;;6.90;;
14116;SDS011;7137;51.436;6.544;2024-01-25T05:54:16;21.73;;;6.20;;
14116;SDS011;7137;51.436;6.544;2024-01-25T05:57:20;20.93;;;5.97;;
14116;SDS011;7137;51.436;6.544;2024-01-25T06:00:22;25.40;;;5.83;;
14116;SDS011;7137;51.436;6.544;2024-01-25T06:03:24;29.63;;;5.93;;
14116;SDS011;7137;51.436;6.544;2024-01-25T06:10:03;27.80;;;5.50;;
14116;SDS011;7137;51.436;6.544;2024-01-25T06:17:09;30.70;;;6.00;;
14116;SDS011;7137;51.436;6.544;2024-01-25T06:20:11;29.27;;;6.50;;
14116;SDS011;7137;51.436;6.544;2024-01-25T06:23:13;27.23;;;5.73;;
14116;SDS011;7137;51.436;6.544;2024-01-25T06:26:15;28.17;;;5.53;;
14116;SDS011;7137;51.436;6.544;2024-01-25T06:29:17;30.17;;;6.70;;
14116;SDS011;7137;51.436;6.544;2024-01-25T06:32:21;27.87;;;7.33;;
14116;SDS011;7137;51.436;6.544;2024-01-25T06:35:23;23.63;;;5.63;;
14116;SDS011;7137;51.436;6.544;2024-01-25T06:38:25;31.70;;;6.27;;
14116;SDS011;7137;51.436;6.544;2024-01-25T06:41:27;29.97;;;6.07;;
14116;SDS011;7137;51.436;6.544;2024-01-25T06:44:30;25.53;;;6.07;;
14116;SDS011;7137;51.436;6.544;2024-01-25T06:47:33;28.90;;;6.03;;
14116;SDS011;7137;51.436;6.544;2024-01-25T06:50:35;27.67;;;6.33;;
14116;SDS011;7137;51.436;6.544;2024-01-25T06:53:38;25.27;;;6.57;;
14116;SDS011;7137;51.436;6.544;2024-01-25T06:56:40;25.10;;;6.30;;
14116;SDS011;7137;51.436;6.544;2024-01-25T06:59:43;28.17;;;6.13;;
14116;SDS011;7137;51.436;6.544;2024-01-25T07:02:53;27.27;;;5.63;;
14116;SDS011;7137;51.436;6.544;2024-01-25T07:06:12;28.87;;;6.47;;
14116;SDS011;7137;51.436;6.544;2024-01-25T07:09:14;19.40;;;5.40;;
14116;SDS011;7137;51.436;6.544;2024-01-25T07:12:17;23.53;;;5.33;;
14116;SDS011;7137;51.436;6.544;2024-01-25T07:15:19;23.97;;;5.80;;
14116;SDS011;7137;51.436;6.544;2024-01-25T07:18:23;22.47;;;5.50;;
14116;SDS011;7137;51.436;6.544;2024-01-25T07:21:26;24.40;;;6.43;;
14116;SDS011;7137;51.436;6.544;2024-01-25T07:24:32;31.03;;;6.97;;
14116;SDS011;7137;51.436;6.544;2024-01-25T07:27:35;24.20;;;5.77;;
14116;SDS011;7137;51.436;6.544;2024-01-25T07:30:37;27.57;;;6.20;;
14116;SDS011;7137;51.436;6.544;2024-01-25T07:33:42;25.73;;;6.23;;
14116;SDS011;7137;51.436;6.544;2024-01-25T07:36:45;26.63;;;6.37;;
14116;SDS011;7137;51.436;6.544;2024-01-25T07:39:47;22.73;;;6.00;;
14116;SDS011;7137;51.436;6.544;2024-01-25T07:42:50;28.00;;;7.10;;
14116;SDS011;7137;51.436;6.544;2024-01-25T07:45:51;28.20;;;7.17;;
14116;SDS011;7137;51.436;6.544;2024-01-25T07:48:54;31.80;;;7.43;;
14116;SDS011;7137;51.436;6.544;2024-01-25T07:51:56;35.93;;;7.73;;
14116;SDS011;7137;51.436;6.544;2024-01-25T07:54:58;33.00;;;7.90;;
14116;SDS011;7137;51.436;6.544;2024-01-25T07:58:00;33.37;;;6.57;;
14116;SDS011;7137;51.436;6.544;2024-01-25T08:01:03;37.17;;;8.20;;
14116;SDS011;7137;51.436;6.544;2024-01-25T08:04:08;37.63;;;8.27;;
14116;SDS011;7137;51.436;6.544;2024-01-25T08:07:11;36.67;;;8.10;;
14116;SDS011;7137;51.436;6.544;2024-01-25T08:10:13;33.57;;;8.43;;
14116;SDS011;7137;51.436;6.544;2024-01-25T08:13:16;25.40;;;7.57;;
14116;SDS011;7137;51.436;6.544;2024-01-25T08:16:18;33.40;;;7.73;;
14116;SDS011;7137;51.436;6.544;2024-01-25T08:19:22;29.93;;;7.33;;
14116;SDS011;7137;51.436;6.544;2024-01-25T08:22:28;26.27;;;7.13;;
14116;SDS011;7137;51.436;6.544;2024-01-25T08:25:30;35.43;;;8.43;;
14116;SDS011;7137;51.436;6.544;2024-01-25T08:28:32;33.73;;;8.20;;
14116;SDS011;7137;51.436;6.544;2024-01-25T08:31:34;30.93;;;7.87;;
14116;SDS011;7137;51.436;6.544;2024-01-25T08:34:37;37.20;;;8.47;;
14116;SDS011;7137;51.436;6.544;2024-01-25T08:37:39;36.80;;;8.30;;
14116;SDS011;7137;51.436;6.544;2024-01-25T08:40:42;37.43;;;8.93;;
14116;SDS011;7137;51.436;6.544;2024-01-25T08:43:43;33.53;;;8.27;;
14116;SDS011;7137;51.436;6.544;2024-01-25T08:46:45;34.87;;;9.13;;
14116;SDS011;7137;51.436;6.544;2024-01-25T08:49:48;38.53;;;9.53;;
14116;SDS011;7137;51.436;6.544;2024-01-25T08:52:50;41.80;;;9.63;;
14116;SDS011;7137;51.436;6.544;2024-01-25T08:55:53;44.13;;;10.43;;
14116;SDS011;7137;51.436;6.544;2024-01-25T08:58:55;39.27;;;10.50;;
14116;SDS011;7137;51.436;6.544;2024-01-25T09:01:56;43.00;;;11.03;;
14116;SDS011;7137;51.436;6.544;2024-01-25T09:04:59;42.47;;;11.00;;
14116;SDS011;7137;51.436;6.544;2024-01-25T09:08:01;39.67;;;11.87;;
14116;SDS011;7137;51.436;6.544;2024-01-25T09:11:03;45.03;;;12.63;;
14116;SDS011;7137;51.436;6.544;2024-01-25T09:14:05;40.03;;;12.23;;
14116;SDS011;7137;51.436;6.544;2024-01-25T09:17:07;48.17;;;14.33;;
14116;SDS011;7137;51.436;6.544;2024-01-25T09:20:10;54.40;;;16.27;;
14116;SDS011;7137;51.436;6.544;2024-01-25T09:23:12;54.37;;;17.77;;
14116;SDS011;7137;51.436;6.544;2024-01-25T09:26:14;56.17;;;18.73;;
14116;SDS011;7137;51.436;6.544;2024-01-25T09:29:15;57.20;;;18.60;;
14116;SDS011;7137;51.436;6.544;2024-01-25T09:32:17;55.67;;;20.80;;
14116;SDS011;7137;51.436;6.544;2024-01-25T09:35:22;51.47;;;19.93;;
14116;SDS011;7137;51.436;6.544;2024-01-25T09:38:24;44.47;;;19.20;;
14116;SDS011;7137;51.436;6.544;2024-01-25T09:41:25;44.60;;;18.60;;
14116;SDS011;7137;51.436;6.544;2024-01-25T09:44:27;45.93;;;19.17;;
14116;SDS011;7137;51.436;6.544;2024-01-25T09:47:28;48.47;;;18.20;;
14116;SDS011;7137;51.436;6.544;2024-01-25T09:50:31;45.67;;;18.73;;
14116;SDS011;7137;51.436;6.544;2024-01-25T09:53:33;41.70;;;18.83;;
14116;SDS011;7137;51.436;6.544;2024-01-25T09:56:35;42.23;;;19.07;;
14116;SDS011;7137;51.436;6.544;2024-01-25T09:59:37;36.87;;;19.10;;
14116;SDS011;7137;51.436;6.544;2024-01-25T10:02:39;38.33;;;18.13;;
14116;SDS011;7137;51.436;6.544;2024-01-25T10:05:43;41.57;;;18.53;;
14116;SDS011;7137;51.436;6.544;2024-01-25T10:08:45;42.43;;;18.60;;
14116;SDS011;7137;51.436;6.544;2024-01-25T10:11:47;37.63;;;18.87;;
14116;SDS011;7137;51.436;6.544;2024-01-25T10:14:49;37.13;;;17.83;;
14116;SDS011;7137;51.436;6.544;2024-01-25T10:17:51;39.63;;;19.70;;
14116;SDS011;7137;51.436;6.544;2024-01-25T10:20:54;39.07;;;18.90;;
14116;SDS011;7137;51.436;6.544;2024-01-25T10:23:56;40.23;;;19.50;;
14116;SDS011;7137;51.436;6.544;2024-01-25T10:26:58;41.30;;;18.97;;
14116;SDS011;7137;51.436;6.544;2024-01-25T10:30:00;41.87;;;19.70;;
14116;SDS011;7137;51.436;6.544;2024-01-25T10:33:02;40.17;;;19.87;;
14116;SDS011;7137;51.436;6.544;2024-01-25T10:36:06;40.90;;;19.77;;
14116;SDS011;7137;51.436;6.544;2024-01-25T10:39:09;41.97;;;20.83;;
14116;SDS011;7137;51.436;6.544;2024-01-25T10:42:14;47.77;;;21.17;;
14116;SDS011;7137;51.436;6.544;2024-01-25T10:45:19;47.07;;;20.90;;
14116;SDS011;7137;51.436;6.544;2024-01-25T10:48:20;44.47;;;22.13;;
14116;SDS011;7137;51.436;6.544;2024-01-25T10:51:24;46.50;;;22.37;;
14116;SDS011;7137;51.436;6.544;2024-01-25T10:54:26;47.40;;;22.23;;
14116;SDS011;7137;51.436;6.544;2024-01-25T10:57:34;49.13;;;22.80;;
14116;SDS011;7137;51.436;6.544;2024-01-25T11:00:37;46.43;;;22.40;;
14116;SDS011;7137;51.436;6.544;2024-01-25T11:03:41;48.73;;;24.00;;
14116;SDS011;7137;51.436;6.544;2024-01-25T11:06:46;47.57;;;24.23;;
14116;SDS011;7137;51.436;6.544;2024-01-25T11:09:50;51.17;;;25.03;;
14116;SDS011;7137;51.436;6.544;2024-01-25T11:12:55;52.40;;;25.27;;
14116;SDS011;7137;51.436;6.544;2024-01-25T11:15:57;53.67;;;26.00;;
14116;SDS011;7137;51.436;6.544;2024-01-25T11:18:59;51.73;;;26.13;;
14116;SDS011;7137;51.436;6.544;2024-01-25T11:22:06;56.47;;;26.60;;
14116;SDS011;7137;51.436;6.544;2024-01-25T11:25:11;48.93;;;26.03;;
14116;SDS011;7137;51.436;6.544;2024-01-25T11:28:14;53.33;;;26.87;;
14116;SDS011;7137;51.436;6.544;2024-01-25T11:31:17;52.33;;;25.43;;
14116;SDS011;7137;51.436;6.544;2024-01-25T11:34:19;58.30;;;26.73;;
14116;SDS011;7137;51.436;6.544;2024-01-25T11:37:24;50.73;;;25.47;;
14116;SDS011;7137;51.436;6.544;2024-01-25T11:40:26;48.77;;;23.77;;
14116;SDS011;7137;51.436;6.544;2024-01-25T11:43:30;46.73;;;23.93;;
14116;SDS011;7137;51.436;6.544;2024-01-25T11:46:32;54.20;;;25.70;;
14116;SDS011;7137;51.436;6.544;2024-01-25T11:49:34;54.80;;;25.30;;
14116;SDS011;7137;51.436;6.544;2024-01-25T11:52:37;51.17;;;25.67;;
14116;SDS011;7137;51.436;6.544;2024-01-25T11:55:39;49.17;;;25.30;;
14116;SDS011;7137;51.436;6.544;2024-01-25T11:58:41;45.93;;;22.93;;
14116;SDS011;7137;51.436;6.544;2024-01-25T12:01:42;48.43;;;23.00;;
14116;SDS011;7137;51.436;6.544;2024-01-25T12:04:45;44.97;;;21.73;;
14116;SDS011;7137;51.436;6.544;2024-01-25T12:07:49;43.07;;;21.27;;
14116;SDS011;7137;51.436;6.544;2024-01-25T12:10:51;48.23;;;21.47;;
14116;SDS011;7137;51.436;6.544;2024-01-25T12:14:03;46.43;;;21.43;;
14116;SDS011;7137;51.436;6.544;2024-01-25T12:17:06;42.80;;;21.00;;
14116;SDS011;7137;51.436;6.544;2024-01-25T12:20:12;46.77;;;21.03;;
14116;SDS011;7137;51.436;6.544;2024-01-25T12:23:16;43.77;;;20.97;;
14116;SDS011;7137;51.436;6.544;2024-01-25T12:26:18;43.53;;;20.20;;
14116;SDS011;7137;51.436;6.544;2024-01-25T12:29:21;43.73;;;19.90;;
14116;SDS011;7137;51.436;6.544;2024-01-25T12:32:24;46.23;;;19.77;;
14116;SDS011;7137;51.436;6.544;2024-01-25T12:35:26;47.03;;;19.83;;
14116;SDS011;7137;51.436;6.544;2024-01-25T12:38:31;39.43;;;18.47;;
14116;SDS011;7137;51.436;6.544;2024-01-25T12:41:35;44.27;;;18.73;;
14116;SDS011;7137;51.436;6.544;2024-01-25T12:44:38;42.80;;;18.50;;
14116;SDS011;7137;51.436;6.544;2024-01-25T12:47:40;41.53;;;17.60;;
14116;SDS011;7137;51.436;6.544;2024-01-25T12:50:42;40.87;;;18.20;;
14116;SDS011;7137;51.436;6.544;2024-01-25T12:53:44;39.97;;;17.40;;
14116;SDS011;7137;51.436;6.544;2024-01-25T12:56:46;37.70;;;15.97;;
14116;SDS011;7137;51.436;6.544;2024-01-25T12:59:48;38.43;;;16.67;;
14116;SDS011;7137;51.436;6.544;2024-01-25T13:02:50;37.97;;;16.80;;
14116;SDS011;7137;51.436;6.544;2024-01-25T13:05:53;38.37;;;16.87;;
14116;SDS011;7137;51.436;6.544;2024-01-25T13:08:56;39.93;;;18.50;;
14116;SDS011;7137;51.436;6.544;2024-01-25T13:11:58;44.23;;;19.60;;
14116;SDS011;7137;51.436;6.544;2024-01-25T13:15:00;38.77;;;18.30;;
14116;SDS011;7137;51.436;6.544;2024-01-25T13:18:02;41.00;;;18.70;;
14116;SDS011;7137;51.436;6.544;2024-01-25T13:21:04;43.90;;;18.23;;
14116;SDS011;7137;51.436;6.544;2024-01-25T13:24:07;40.30;;;19.03;;
14116;SDS011;7137;51.436;6.544;2024-01-25T13:27:09;41.97;;;18.53;;
14116;SDS011;7137;51.436;6.544;2024-01-25T13:30:11;40.00;;;18.73;;
14116;SDS011;7137;51.436;6.544;2024-01-25T13:33:14;47.20;;;20.47;;
14116;SDS011;7137;51.436;6.544;2024-01-25T13:36:15;44.37;;;20.60;;
14116;SDS011;7137;51.436;6.544;2024-01-25T13:39:19;42.73;;;20.03;;
14116;SDS011;7137;51.436;6.544;2024-01-25T13:42:21;47.83;;;19.07;;
14116;SDS011;7137;51.436;6.544;2024-01-25T13:45:23;39.53;;;18.77;;
14116;SDS011;7137;51.436;6.544;2024-01-25T13:48:24;38.87;;;18.67;;
14116;SDS011;7137;51.436;6.544;2024-01-25T13:51:27;41.87;;;19.00;;
14116;SDS011;7137;51.436;6.544;2024-01-25T13:54:30;42.87;;;18.57;;
14116;SDS011;7137;51.436;6.544;2024-01-25T13:57:31;48.70;;;19.47;;
14116;SDS011;7137;51.436;6.544;2024-01-25T14:00:33;39.07;;;18.53;;
14116;SDS011;7137;51.436;6.544;2024-01-25T14:03:34;43.67;;;18.77;;
14116;SDS011;7137;51.436;6.544;2024-01-25T14:06:36;38.37;;;19.00;;
14116;SDS011;7137;51.436;6.544;2024-01-25T14:09:39;39.80;;;16.20;;
14116;SDS011;7137;51.436;6.544;2024-01-25T14:12:41;42.13;;;17.30;;
14116;SDS011;7137;51.436;6.544;2024-01-25T14:15:43;40.87;;;17.03;;
14116;SDS011;7137;51.436;6.544;2024-01-25T14:18:47;38.47;;;17.37;;
14116;SDS011;7137;51.436;6.544;2024-01-25T14:21:50;41.03;;;16.70;;
14116;SDS011;7137;51.436;6.544;2024-01-25T14:24:53;36.80;;;15.77;;
14116;SDS011;7137;51.436;6.544;2024-01-25T14:27:55;35.60;;;15.50;;
14116;SDS011;7137;51.436;6.544;2024-01-25T14:30:58;41.33;;;15.97;;
14116;SDS011;7137;51.436;6.544;2024-01-25T14:34:01;37.17;;;14.43;;
14116;SDS011;7137;51.436;6.544;2024-01-25T14:37:03;39.10;;;14.77;;
14116;SDS011;7137;51.436;6.544;2024-01-25T14:40:07;32.17;;;14.13;;
14116;SDS011;7137;51.436;6.544;2024-01-25T14:43:09;42.33;;;15.30;;
14116;SDS011;7137;51.436;6.544;2024-01-25T14:46:11;34.63;;;14.50;;
14116;SDS011;7137;51.436;6.544;2024-01-25T14:49:12;33.97;;;14.27;;
14116;SDS011;7137;51.436;6.544;2024-01-25T14:52:14;35.77;;;14.27;;
14116;SDS011;7137;51.436;6.544;2024-01-25T14:55:17;33.23;;;13.80;;
14116;SDS011;7137;51.436;6.544;2024-01-25T14:58:19;36.43;;;14.43;;
14116;SDS011;7137;51.436;6.544;2024-01-25T15:01:23;36.47;;;13.43;;
14116;SDS011;7137;51.436;6.544;2024-01-25T15:04:28;33.37;;;13.40;;
14116;SDS011;7137;51.436;6.544;2024-01-25T15:07:31;29.87;;;12.47;;
14116;SDS011;7137;51.436;6.544;2024-01-25T15:10:33;31.03;;;12.47;;
14116;SDS011;7137;51.436;6.544;2024-01-25T15:13:35;35.13;;;13.63;;
14116;SDS011;7137;51.436;6.544;2024-01-25T15:16:37;34.97;;;13.10;;
14116;SDS011;7137;51.436;6.544;2024-01-25T15:19:39;33.97;;;13.37;;
14116;SDS011;7137;51.436;6.544;2024-01-25T15:22:41;37.57;;;13.80;;
14116;SDS011;7137;51.436;6.544;2024-01-25T15:25:44;32.03;;;13.13;;
14116;SDS011;7137;51.436;6.544;2024-01-25T15:28:46;36.70;;;13.53;;
14116;SDS011;7137;51.436;6.544;2024-01-25T15:31:47;29.00;;;11.73;;
14116;SDS011;7137;51.436;6.544;2024-01-25T15:34:49;32.13;;;12.43;;
14116;SDS011;7137;51.436;6.544;2024-01-25T15:37:50;31.10;;;13.07;;
14116;SDS011;7137;51.436;6.544;2024-01-25T15:40:57;33.37;;;14.40;;
14116;SDS011;7137;51.436;6.544;2024-01-25T15:43:59;32.83;;;13.50;;
14116;SDS011;7137;51.436;6.544;2024-01-25T15:47:01;34.07;;;13.77;;
14116;SDS011;7137;51.436;6.544;2024-01-25T15:50:05;36.10;;;13.93;;
14116;SDS011;7137;51.436;6.544;2024-01-25T15:53:07;36.77;;;13.63;;
14116;SDS011;7137;51.436;6.544;2024-01-25T15:56:12;39.23;;;14.93;;
14116;SDS011;7137;51.436;6.544;2024-01-25T15:59:14;34.00;;;14.70;;
14116;SDS011;7137;51.436;6.544;2024-01-25T16:02:16;32.60;;;13.20;;
14116;SDS011;7137;51.436;6.544;2024-01-25T16:05:19;30.67;;;13.33;;
14116;SDS011;7137;51.436;6.544;2024-01-25T16:08:29;37.33;;;14.87;;
14116;SDS011;7137;51.436;6.544;2024-01-25T16:11:32;36.53;;;13.63;;
14116;SDS011;7137;51.436;6.544;2024-01-25T16:14:35;31.53;;;13.73;;
14116;SDS011;7137;51.436;6.544;2024-01-25T16:17:37;36.13;;;13.73;;
14116;SDS011;7137;51.436;6.544;2024-01-25T16:20:39;33.73;;;13.93;;
14116;SDS011;7137;51.436;6.544;2024-01-25T16:23:41;34.40;;;13.30;;
14116;SDS011;7137;51.436;6.544;2024-01-25T16:26:44;35.07;;;13.00;;
14116;SDS011;7137;51.436;6.544;2024-01-25T16:29:46;32.97;;;12.80;;
14116;SDS011;7137;51.436;6.544;2024-01-25T16:32:49;27.03;;;12.30;;
14116;SDS011;7137;51.436;6.544;2024-01-25T16:35:51;29.13;;;10.30;;
14116;SDS011;7137;51.436;6.544;2024-01-25T16:38:53;32.57;;;11.40;;
14116;SDS011;7137;51.436;6.544;2024-01-25T16:41:56;29.10;;;11.10;;
14116;SDS011;7137;51.436;6.544;2024-01-25T16:44:57;27.70;;;11.13;;
14116;SDS011;7137;51.436;6.544;2024-01-25T16:47:59;31.97;;;12.87;;
14116;SDS011;7137;51.436;6.544;2024-01-25T16:51:01;41.00;;;18.43;;
14116;SDS011;7137;51.436;6.544;2024-01-25T16:54:05;30.33;;;13.23;;
14116;SDS011;7137;51.436;6.544;2024-01-25T16:57:09;30.30;;;10.47;;
14116;SDS011;7137;51.436;6.544;2024-01-25T17:00:12;30.17;;;10.73;;
14116;SDS011;7137;51.436;6.544;2024-01-25T17:03:14;32.43;;;11.33;;
14116;SDS011;7137;51.436;6.544;2024-01-25T17:06:15;33.60;;;12.33;;
14116;SDS011;7137;51.436;6.544;2024-01-25T17:09:17;33.40;;;11.57;;
14116;SDS011;7137;51.436;6.544;2024-01-25T17:12:20;29.83;;;11.23;;
14116;SDS011;7137;51.436;6.544;2024-01-25T17:15:21;30.87;;;10.60;;
14116;SDS011;7137;51.436;6.544;2024-01-25T17:18:24;29.77;;;11.30;;
14116;SDS011;7137;51.436;6.544;2024-01-25T17:21:27;31.57;;;12.37;;
14116;SDS011;7137;51.436;6.544;2024-01-25T17:24:29;30.47;;;11.53;;
14116;SDS011;7137;51.436;6.544;2024-01-25T17:27:32;29.47;;;10.47;;
14116;SDS011;7137;51.436;6.544;2024-01-25T17:30:34;28.13;;;9.47;;
14116;SDS011;7137;51.436;6.544;2024-01-25T17:33:37;28.60;;;12.30;;
14116;SDS011;7137;51.436;6.544;2024-01-25T17:36:39;30.73;;;11.63;;
14116;SDS011;7137;51.436;6.544;2024-01-25T17:39:41;30.10;;;10.10;;
14116;SDS011;7137;51.436;6.544;2024-01-25T17:42:44;32.53;;;11.53;;
14116;SDS011;7137;51.436;6.544;2024-01-25T17:45:45;31.63;;;10.93;;
14116;SDS011;7137;51.436;6.544;2024-01-25T17:48:47;22.57;;;8.50;;
14116;SDS011;7137;51.436;6.544;2024-01-25T17:51:48;29.20;;;8.53;;
14116;SDS011;7137;51.436;6.544;2024-01-25T17:54:50;29.90;;;10.80;;
14116;SDS011;7137;51.436;6.544;2024-01-25T17:57:53;33.30;;;11.60;;
14116;SDS011;7137;51.436;6.544;2024-01-25T18:00:55;25.57;;;9.40;;
14116;SDS011;7137;51.436;6.544;2024-01-25T18:03:56;29.17;;;8.60;;
14116;SDS011;7137;51.436;6.544;2024-01-25T18:06:58;23.53;;;9.40;;
14116;SDS011;7137;51.436;6.544;2024-01-25T18:09:59;29.43;;;9.23;;
14116;SDS011;7137;51.436;6.544;2024-01-25T18:13:02;25.17;;;8.73;;
14116;SDS011;7137;51.436;6.544;2024-01-25T18:16:04;27.57;;;7.87;;
14116;SDS011;7137;51.436;6.544;2024-01-25T18:19:06;22.23;;;7.87;;